Terminal Aerodrome Forecast
Issued by NWS

Home | Current Version | Previous Version | Text Only | Print | Product List | Glossary Off
Versions: 1 2 3 4 5 6 7 8 9 10 11 12 13 14 15 16

592
FTUS43 KTOP 131720
TAFMHK
TAF
KMHK 131720Z 1318/1418 12011KT P6SM OVC050
     FM140300 13010KT P6SM BKN040
     FM141400 25007KT P6SM SCT050=

USA.gov is the U.S. government's official web portal to all federal, state and local government web resources and services.